sensor_id;sensor_type;location;lat;lon;timestamp;temperature;humidity
12901;DHT22;6518;50.930;5.344;2024-02-04T00:01:35;10.50;99.90
12901;DHT22;6518;50.930;5.344;2024-02-04T00:04:02;10.50;99.90
12901;DHT22;6518;50.930;5.344;2024-02-04T00:06:29;10.50;99.90
12901;DHT22;6518;50.930;5.344;2024-02-04T00:08:56;10.50;99.90
12901;DHT22;6518;50.930;5.344;2024-02-04T00:11:24;10.50;99.90
12901;DHT22;6518;50.930;5.344;2024-02-04T00:13:51;10.50;99.90
12901;DHT22;6518;50.930;5.344;2024-02-04T00:16:18;10.50;99.90
12901;DHT22;6518;50.930;5.344;2024-02-04T00:18:46;10.50;99.90
12901;DHT22;6518;50.930;5.344;2024-02-04T00:21:13;10.50;99.90
12901;DHT22;6518;50.930;5.344;2024-02-04T00:23:40;10.50;99.90
12901;DHT22;6518;50.930;5.344;2024-02-04T00:26:07;10.50;99.90
12901;DHT22;6518;50.930;5.344;2024-02-04T00:28:34;10.50;99.90
12901;DHT22;6518;50.930;5.344;2024-02-04T00:31:01;10.50;99.90
12901;DHT22;6518;50.930;5.344;2024-02-04T00:33:28;10.50;99.90
12901;DHT22;6518;50.930;5.344;2024-02-04T00:35:56;10.50;99.90
12901;DHT22;6518;50.930;5.344;2024-02-04T00:38:23;10.50;99.90
12901;DHT22;6518;50.930;5.344;2024-02-04T00:40:50;10.50;99.90
12901;DHT22;6518;50.930;5.344;2024-02-04T00:43:18;10.50;99.90
12901;DHT22;6518;50.930;5.344;2024-02-04T00:45:44;10.50;99.90
12901;DHT22;6518;50.930;5.344;2024-02-04T00:48:11;10.50;99.90
12901;DHT22;6518;50.930;5.344;2024-02-04T00:50:38;10.50;99.90
12901;DHT22;6518;50.930;5.344;2024-02-04T00:53:07;10.50;99.90
12901;DHT22;6518;50.930;5.344;2024-02-04T00:55:34;10.50;99.90
12901;DHT22;6518;50.930;5.344;2024-02-04T00:58:01;10.60;99.90
12901;DHT22;6518;50.930;5.344;2024-02-04T01:00:28;10.50;99.90
12901;DHT22;6518;50.930;5.344;2024-02-04T01:02:55;10.60;99.90
12901;DHT22;6518;50.930;5.344;2024-02-04T01:05:23;10.60;99.90
12901;DHT22;6518;50.930;5.344;2024-02-04T01:07:50;10.50;99.90
12901;DHT22;6518;50.930;5.344;2024-02-04T01:10:18;10.50;99.90
12901;DHT22;6518;50.930;5.344;2024-02-04T01:12:45;10.50;99.90
12901;DHT22;6518;50.930;5.344;2024-02-04T01:15:12;10.50;99.90
12901;DHT22;6518;50.930;5.344;2024-02-04T01:17:39;10.50;99.90
12901;DHT22;6518;50.930;5.344;2024-02-04T01:20:06;10.50;99.90
12901;DHT22;6518;50.930;5.344;2024-02-04T01:22:33;10.50;99.90
12901;DHT22;6518;50.930;5.344;2024-02-04T01:25:00;10.50;99.90
12901;DHT22;6518;50.930;5.344;2024-02-04T01:27:29;10.50;99.90
12901;DHT22;6518;50.930;5.344;2024-02-04T01:29:56;10.50;99.90
12901;DHT22;6518;50.930;5.344;2024-02-04T01:32:23;10.50;99.90
12901;DHT22;6518;50.930;5.344;2024-02-04T01:34:50;10.50;99.90
12901;DHT22;6518;50.930;5.344;2024-02-04T01:37:17;10.50;99.90
12901;DHT22;6518;50.930;5.344;2024-02-04T01:39:44;10.50;99.90
12901;DHT22;6518;50.930;5.344;2024-02-04T01:42:10;10.50;99.90
12901;DHT22;6518;50.930;5.344;2024-02-04T01:44:39;10.50;99.90
12901;DHT22;6518;50.930;5.344;2024-02-04T01:47:06;10.50;99.90
12901;DHT22;6518;50.930;5.344;2024-02-04T01:49:33;10.50;99.90
12901;DHT22;6518;50.930;5.344;2024-02-04T01:52:01;10.50;99.90
12901;DHT22;6518;50.930;5.344;2024-02-04T01:54:29;10.50;99.90
12901;DHT22;6518;50.930;5.344;2024-02-04T01:56:58;10.50;99.90
12901;DHT22;6518;50.930;5.344;2024-02-04T01:59:27;10.50;99.90
12901;DHT22;6518;50.930;5.344;2024-02-04T02:01:58;10.50;99.90
12901;DHT22;6518;50.930;5.344;2024-02-04T02:04:26;10.50;99.90
12901;DHT22;6518;50.930;5.344;2024-02-04T02:06:53;10.50;99.90
12901;DHT22;6518;50.930;5.344;2024-02-04T02:09:22;10.50;99.90
12901;DHT22;6518;50.930;5.344;2024-02-04T02:11:54;10.50;99.90
12901;DHT22;6518;50.930;5.344;2024-02-04T02:14:26;10.50;99.90
12901;DHT22;6518;50.930;5.344;2024-02-04T02:16:57;10.50;99.90
12901;DHT22;6518;50.930;5.344;2024-02-04T02:19:35;10.50;99.90
12901;DHT22;6518;50.930;5.344;2024-02-04T02:22:18;10.50;99.90
12901;DHT22;6518;50.930;5.344;2024-02-04T02:24:51;10.50;99.90
12901;DHT22;6518;50.930;5.344;2024-02-04T02:27:19;10.50;99.90
12901;DHT22;6518;50.930;5.344;2024-02-04T02:29:46;10.50;99.90
12901;DHT22;6518;50.930;5.344;2024-02-04T02:32:13;10.50;99.90
12901;DHT22;6518;50.930;5.344;2024-02-04T02:34:40;10.50;99.90
12901;DHT22;6518;50.930;5.344;2024-02-04T02:37:14;10.50;99.90
12901;DHT22;6518;50.930;5.344;2024-02-04T02:39:49;10.60;99.90
12901;DHT22;6518;50.930;5.344;2024-02-04T02:42:22;10.50;99.90
12901;DHT22;6518;50.930;5.344;2024-02-04T02:44:49;10.50;99.90
12901;DHT22;6518;50.930;5.344;2024-02-04T02:47:17;10.50;99.90
12901;DHT22;6518;50.930;5.344;2024-02-04T02:49:45;10.50;99.90
12901;DHT22;6518;50.930;5.344;2024-02-04T02:52:12;10.50;99.90
12901;DHT22;6518;50.930;5.344;2024-02-04T02:54:39;10.60;99.90
12901;DHT22;6518;50.930;5.344;2024-02-04T02:57:06;10.60;99.90
12901;DHT22;6518;50.930;5.344;2024-02-04T02:59:34;10.60;99.90
12901;DHT22;6518;50.930;5.344;2024-02-04T03:02:01;10.60;99.90
12901;DHT22;6518;50.930;5.344;2024-02-04T03:04:28;10.60;99.90
12901;DHT22;6518;50.930;5.344;2024-02-04T03:06:55;10.60;99.90
12901;DHT22;6518;50.930;5.344;2024-02-04T03:09:22;10.60;99.90
12901;DHT22;6518;50.930;5.344;2024-02-04T03:11:49;10.60;99.90
12901;DHT22;6518;50.930;5.344;2024-02-04T03:14:16;10.60;99.90
12901;DHT22;6518;50.930;5.344;2024-02-04T03:16:45;10.60;99.90
12901;DHT22;6518;50.930;5.344;2024-02-04T03:19:12;10.60;99.90
12901;DHT22;6518;50.930;5.344;2024-02-04T03:21:39;10.60;99.90
12901;DHT22;6518;50.930;5.344;2024-02-04T03:24:06;10.60;99.90
12901;DHT22;6518;50.930;5.344;2024-02-04T03:26:33;10.60;99.90
12901;DHT22;6518;50.930;5.344;2024-02-04T03:29:00;10.60;99.90
12901;DHT22;6518;50.930;5.344;2024-02-04T03:31:31;10.60;99.90
12901;DHT22;6518;50.930;5.344;2024-02-04T03:33:59;10.60;99.90
12901;DHT22;6518;50.930;5.344;2024-02-04T03:36:26;10.60;99.90
12901;DHT22;6518;50.930;5.344;2024-02-04T03:38:53;10.60;99.90
12901;DHT22;6518;50.930;5.344;2024-02-04T03:41:20;10.60;99.90
12901;DHT22;6518;50.930;5.344;2024-02-04T03:43:47;10.60;99.90
12901;DHT22;6518;50.930;5.344;2024-02-04T03:46:14;10.60;99.90
12901;DHT22;6518;50.930;5.344;2024-02-04T03:48:41;10.60;99.90
12901;DHT22;6518;50.930;5.344;2024-02-04T03:51:15;10.60;99.90
12901;DHT22;6518;50.930;5.344;2024-02-04T03:53:42;10.60;99.90
12901;DHT22;6518;50.930;5.344;2024-02-04T03:56:09;10.60;99.90
12901;DHT22;6518;50.930;5.344;2024-02-04T03:58:36;10.70;99.90
12901;DHT22;6518;50.930;5.344;2024-02-04T04:01:03;10.70;99.90
12901;DHT22;6518;50.930;5.344;2024-02-04T04:03:30;10.70;99.90
12901;DHT22;6518;50.930;5.344;2024-02-04T04:05:57;10.70;99.90
12901;DHT22;6518;50.930;5.344;2024-02-04T04:08:26;10.70;99.90
12901;DHT22;6518;50.930;5.344;2024-02-04T04:10:54;10.70;99.90
12901;DHT22;6518;50.930;5.344;2024-02-04T04:13:21;10.70;99.90
12901;DHT22;6518;50.930;5.344;2024-02-04T04:15:50;10.70;99.90
12901;DHT22;6518;50.930;5.344;2024-02-04T04:18:18;10.70;99.90
12901;DHT22;6518;50.930;5.344;2024-02-04T04:20:44;10.70;99.90
12901;DHT22;6518;50.930;5.344;2024-02-04T04:23:12;10.60;99.90
12901;DHT22;6518;50.930;5.344;2024-02-04T04:25:40;10.70;99.90
12901;DHT22;6518;50.930;5.344;2024-02-04T04:28:07;10.60;99.90
12901;DHT22;6518;50.930;5.344;2024-02-04T04:30:34;10.70;99.90
12901;DHT22;6518;50.930;5.344;2024-02-04T04:33:02;10.70;99.90
12901;DHT22;6518;50.930;5.344;2024-02-04T04:35:29;10.70;99.90
12901;DHT22;6518;50.930;5.344;2024-02-04T04:37:56;10.70;99.90
12901;DHT22;6518;50.930;5.344;2024-02-04T04:40:23;10.70;99.90
12901;DHT22;6518;50.930;5.344;2024-02-04T04:42:51;10.70;99.90
12901;DHT22;6518;50.930;5.344;2024-02-04T04:45:18;10.70;99.90
12901;DHT22;6518;50.930;5.344;2024-02-04T04:47:45;10.70;99.90
12901;DHT22;6518;50.930;5.344;2024-02-04T04:50:12;10.70;99.90
12901;DHT22;6518;50.930;5.344;2024-02-04T04:52:39;10.70;99.90
12901;DHT22;6518;50.930;5.344;2024-02-04T04:55:06;10.70;99.90
12901;DHT22;6518;50.930;5.344;2024-02-04T04:57:33;10.70;99.90
12901;DHT22;6518;50.930;5.344;2024-02-04T05:00:01;10.70;99.90
12901;DHT22;6518;50.930;5.344;2024-02-04T05:02:32;10.70;99.90
12901;DHT22;6518;50.930;5.344;2024-02-04T05:04:59;10.70;99.90
12901;DHT22;6518;50.930;5.344;2024-02-04T05:07:25;10.70;99.90
12901;DHT22;6518;50.930;5.344;2024-02-04T05:09:52;10.70;99.90
12901;DHT22;6518;50.930;5.344;2024-02-04T05:12:20;10.70;99.90
12901;DHT22;6518;50.930;5.344;2024-02-04T05:14:47;10.70;99.90
12901;DHT22;6518;50.930;5.344;2024-02-04T05:17:16;10.70;99.90
12901;DHT22;6518;50.930;5.344;2024-02-04T05:19:43;10.70;99.90
12901;DHT22;6518;50.930;5.344;2024-02-04T05:22:10;10.70;99.90
12901;DHT22;6518;50.930;5.344;2024-02-04T05:24:37;10.70;99.90
12901;DHT22;6518;50.930;5.344;2024-02-04T05:27:04;10.70;99.90
12901;DHT22;6518;50.930;5.344;2024-02-04T05:29:31;10.70;99.90
12901;DHT22;6518;50.930;5.344;2024-02-04T05:31:58;10.70;99.90
12901;DHT22;6518;50.930;5.344;2024-02-04T05:34:28;10.70;99.90
12901;DHT22;6518;50.930;5.344;2024-02-04T05:36:56;10.70;99.90
12901;DHT22;6518;50.930;5.344;2024-02-04T05:39:23;10.70;99.90
12901;DHT22;6518;50.930;5.344;2024-02-04T05:41:50;10.70;99.90
12901;DHT22;6518;50.930;5.344;2024-02-04T05:44:17;10.70;99.90
12901;DHT22;6518;50.930;5.344;2024-02-04T05:46:44;10.70;99.90
12901;DHT22;6518;50.930;5.344;2024-02-04T05:49:11;10.70;99.90
12901;DHT22;6518;50.930;5.344;2024-02-04T05:51:41;10.70;99.90
12901;DHT22;6518;50.930;5.344;2024-02-04T05:54:09;10.60;99.90
12901;DHT22;6518;50.930;5.344;2024-02-04T05:56:37;10.70;99.90
12901;DHT22;6518;50.930;5.344;2024-02-04T05:59:03;10.60;99.90
12901;DHT22;6518;50.930;5.344;2024-02-04T06:01:30;10.70;99.90
12901;DHT22;6518;50.930;5.344;2024-02-04T06:03:58;10.60;99.90
12901;DHT22;6518;50.930;5.344;2024-02-04T06:06:25;10.60;99.90
12901;DHT22;6518;50.930;5.344;2024-02-04T06:08:54;10.60;99.90
12901;DHT22;6518;50.930;5.344;2024-02-04T06:11:21;10.60;99.90
12901;DHT22;6518;50.930;5.344;2024-02-04T06:13:49;10.60;99.90
12901;DHT22;6518;50.930;5.344;2024-02-04T06:16:16;10.60;99.90
12901;DHT22;6518;50.930;5.344;2024-02-04T06:18:43;10.60;99.90
12901;DHT22;6518;50.930;5.344;2024-02-04T06:21:10;10.60;99.90
12901;DHT22;6518;50.930;5.344;2024-02-04T06:23:39;10.60;99.90
12901;DHT22;6518;50.930;5.344;2024-02-04T06:26:09;10.60;99.90
12901;DHT22;6518;50.930;5.344;2024-02-04T06:28:36;10.60;99.90
12901;DHT22;6518;50.930;5.344;2024-02-04T06:31:03;10.60;99.90
12901;DHT22;6518;50.930;5.344;2024-02-04T06:33:32;10.60;99.90
12901;DHT22;6518;50.930;5.344;2024-02-04T06:35:59;10.60;99.90
12901;DHT22;6518;50.930;5.344;2024-02-04T06:38:26;10.60;99.90
12901;DHT22;6518;50.930;5.344;2024-02-04T06:40:53;10.60;99.90
12901;DHT22;6518;50.930;5.344;2024-02-04T06:43:21;10.60;99.90
12901;DHT22;6518;50.930;5.344;2024-02-04T06:45:49;10.60;99.90
12901;DHT22;6518;50.930;5.344;2024-02-04T06:48:19;10.60;99.90
12901;DHT22;6518;50.930;5.344;2024-02-04T06:50:46;10.60;99.90
12901;DHT22;6518;50.930;5.344;2024-02-04T06:53:13;10.60;99.90
12901;DHT22;6518;50.930;5.344;2024-02-04T06:55:40;10.70;99.90
12901;DHT22;6518;50.930;5.344;2024-02-04T06:58:07;10.80;99.90
12901;DHT22;6518;50.930;5.344;2024-02-04T07:00:35;10.90;99.90
12901;DHT22;6518;50.930;5.344;2024-02-04T07:03:03;10.90;99.90
12901;DHT22;6518;50.930;5.344;2024-02-04T07:05:30;10.90;99.90
12901;DHT22;6518;50.930;5.344;2024-02-04T07:07:59;11.00;99.90
12901;DHT22;6518;50.930;5.344;2024-02-04T07:10:26;11.00;99.90
12901;DHT22;6518;50.930;5.344;2024-02-04T07:12:52;11.10;99.90
12901;DHT22;6518;50.930;5.344;2024-02-04T07:15:19;11.10;99.90
12901;DHT22;6518;50.930;5.344;2024-02-04T07:17:47;11.00;99.90
12901;DHT22;6518;50.930;5.344;2024-02-04T07:20:14;11.00;99.90
12901;DHT22;6518;50.930;5.344;2024-02-04T07:22:42;11.00;99.90
12901;DHT22;6518;50.930;5.344;2024-02-04T07:25:09;11.00;99.90
12901;DHT22;6518;50.930;5.344;2024-02-04T07:27:36;11.00;99.90
12901;DHT22;6518;50.930;5.344;2024-02-04T07:30:04;11.00;99.90
12901;DHT22;6518;50.930;5.344;2024-02-04T07:32:32;11.10;99.90
12901;DHT22;6518;50.930;5.344;2024-02-04T07:35:01;11.10;99.90
12901;DHT22;6518;50.930;5.344;2024-02-04T07:37:28;11.10;99.90
12901;DHT22;6518;50.930;5.344;2024-02-04T07:39:55;11.10;99.90
12901;DHT22;6518;50.930;5.344;2024-02-04T07:42:22;11.10;99.90
12901;DHT22;6518;50.930;5.344;2024-02-04T07:44:49;11.10;99.90
12901;DHT22;6518;50.930;5.344;2024-02-04T07:47:16;11.00;99.90
12901;DHT22;6518;50.930;5.344;2024-02-04T07:49:45;10.90;99.90
12901;DHT22;6518;50.930;5.344;2024-02-04T07:52:13;10.90;99.90
12901;DHT22;6518;50.930;5.344;2024-02-04T07:54:40;10.90;99.90
12901;DHT22;6518;50.930;5.344;2024-02-04T07:57:08;10.80;99.90
12901;DHT22;6518;50.930;5.344;2024-02-04T07:59:36;10.80;99.90
12901;DHT22;6518;50.930;5.344;2024-02-04T08:02:03;10.80;99.90
12901;DHT22;6518;50.930;5.344;2024-02-04T08:04:32;10.80;99.90
12901;DHT22;6518;50.930;5.344;2024-02-04T08:06:59;10.80;99.90
12901;DHT22;6518;50.930;5.344;2024-02-04T08:09:27;10.80;99.90
12901;DHT22;6518;50.930;5.344;2024-02-04T08:11:54;10.80;99.90
12901;DHT22;6518;50.930;5.344;2024-02-04T08:14:21;10.80;99.90
12901;DHT22;6518;50.930;5.344;2024-02-04T08:16:48;10.80;99.90
12901;DHT22;6518;50.930;5.344;2024-02-04T08:19:15;10.80;99.90
12901;DHT22;6518;50.930;5.344;2024-02-04T08:21:42;10.80;99.90
12901;DHT22;6518;50.930;5.344;2024-02-04T08:24:09;10.80;99.90
12901;DHT22;6518;50.930;5.344;2024-02-04T08:26:37;10.80;99.90
12901;DHT22;6518;50.930;5.344;2024-02-04T08:29:04;10.80;99.90
12901;DHT22;6518;50.930;5.344;2024-02-04T08:31:32;10.80;99.90
12901;DHT22;6518;50.930;5.344;2024-02-04T08:33:59;10.80;99.90
12901;DHT22;6518;50.930;5.344;2024-02-04T08:36:26;10.80;99.90
12901;DHT22;6518;50.930;5.344;2024-02-04T08:38:53;10.80;99.90
12901;DHT22;6518;50.930;5.344;2024-02-04T08:41:20;10.80;99.90
12901;DHT22;6518;50.930;5.344;2024-02-04T08:43:48;10.90;99.90
12901;DHT22;6518;50.930;5.344;2024-02-04T08:46:15;10.90;99.90
12901;DHT22;6518;50.930;5.344;2024-02-04T08:48:42;10.90;99.90
12901;DHT22;6518;50.930;5.344;2024-02-04T08:51:11;10.90;99.90
12901;DHT22;6518;50.930;5.344;2024-02-04T08:53:38;10.90;99.90
12901;DHT22;6518;50.930;5.344;2024-02-04T08:56:06;10.90;99.90
12901;DHT22;6518;50.930;5.344;2024-02-04T08:58:34;11.00;99.90
12901;DHT22;6518;50.930;5.344;2024-02-04T09:01:04;11.10;99.90
12901;DHT22;6518;50.930;5.344;2024-02-04T09:03:31;11.10;99.90
12901;DHT22;6518;50.930;5.344;2024-02-04T09:05:58;11.00;99.90
12901;DHT22;6518;50.930;5.344;2024-02-04T09:08:25;11.10;99.90
12901;DHT22;6518;50.930;5.344;2024-02-04T09:10:52;11.10;99.90
12901;DHT22;6518;50.930;5.344;2024-02-04T09:13:19;11.10;99.90
12901;DHT22;6518;50.930;5.344;2024-02-04T09:15:46;11.20;99.90
12901;DHT22;6518;50.930;5.344;2024-02-04T09:18:15;11.20;99.90
12901;DHT22;6518;50.930;5.344;2024-02-04T09:20:41;11.20;99.90
12901;DHT22;6518;50.930;5.344;2024-02-04T09:23:12;11.20;99.90
12901;DHT22;6518;50.930;5.344;2024-02-04T09:25:39;11.30;99.90
12901;DHT22;6518;50.930;5.344;2024-02-04T09:28:06;11.30;99.90
12901;DHT22;6518;50.930;5.344;2024-02-04T09:30:33;11.30;99.90
12901;DHT22;6518;50.930;5.344;2024-02-04T09:33:00;11.30;99.90
12901;DHT22;6518;50.930;5.344;2024-02-04T09:35:29;11.30;99.90
12901;DHT22;6518;50.930;5.344;2024-02-04T09:37:56;11.30;99.90
12901;DHT22;6518;50.930;5.344;2024-02-04T09:40:22;11.30;99.90
12901;DHT22;6518;50.930;5.344;2024-02-04T09:42:50;11.30;99.90
12901;DHT22;6518;50.930;5.344;2024-02-04T09:45:18;11.30;99.90
12901;DHT22;6518;50.930;5.344;2024-02-04T09:47:45;11.30;99.90
12901;DHT22;6518;50.930;5.344;2024-02-04T09:50:12;11.30;99.90
12901;DHT22;6518;50.930;5.344;2024-02-04T09:52:44;11.30;99.90
12901;DHT22;6518;50.930;5.344;2024-02-04T09:55:15;11.30;99.90
12901;DHT22;6518;50.930;5.344;2024-02-04T09:57:44;11.30;99.90
12901;DHT22;6518;50.930;5.344;2024-02-04T10:00:12;11.40;99.90
12901;DHT22;6518;50.930;5.344;2024-02-04T10:02:40;11.40;99.90
12901;DHT22;6518;50.930;5.344;2024-02-04T10:05:08;11.40;99.90
12901;DHT22;6518;50.930;5.344;2024-02-04T10:07:36;11.40;99.90
12901;DHT22;6518;50.930;5.344;2024-02-04T10:10:06;11.50;99.90
12901;DHT22;6518;50.930;5.344;2024-02-04T10:12:33;11.40;99.90
12901;DHT22;6518;50.930;5.344;2024-02-04T10:15:01;11.50;99.90
12901;DHT22;6518;50.930;5.344;2024-02-04T10:17:30;11.50;99.90
12901;DHT22;6518;50.930;5.344;2024-02-04T10:19:57;11.60;99.90
12901;DHT22;6518;50.930;5.344;2024-02-04T10:22:26;11.60;99.90
12901;DHT22;6518;50.930;5.344;2024-02-04T10:24:53;11.60;99.90
12901;DHT22;6518;50.930;5.344;2024-02-04T10:27:21;11.60;99.90
12901;DHT22;6518;50.930;5.344;2024-02-04T10:29:48;11.50;99.90
12901;DHT22;6518;50.930;5.344;2024-02-04T10:32:15;11.50;99.90
12901;DHT22;6518;50.930;5.344;2024-02-04T10:34:47;11.50;99.90
12901;DHT22;6518;50.930;5.344;2024-02-04T10:37:14;11.50;99.90
12901;DHT22;6518;50.930;5.344;2024-02-04T10:39:41;11.50;99.90
12901;DHT22;6518;50.930;5.344;2024-02-04T10:42:08;11.50;99.90
12901;DHT22;6518;50.930;5.344;2024-02-04T10:44:39;11.50;99.90
12901;DHT22;6518;50.930;5.344;2024-02-04T10:47:10;11.60;99.90
12901;DHT22;6518;50.930;5.344;2024-02-04T10:49:47;11.60;99.90
12901;DHT22;6518;50.930;5.344;2024-02-04T10:52:17;11.60;99.90
12901;DHT22;6518;50.930;5.344;2024-02-04T10:54:45;11.60;99.90
12901;DHT22;6518;50.930;5.344;2024-02-04T10:57:13;11.60;99.90
12901;DHT22;6518;50.930;5.344;2024-02-04T10:59:47;11.60;99.90
12901;DHT22;6518;50.930;5.344;2024-02-04T11:02:15;11.50;99.90
12901;DHT22;6518;50.930;5.344;2024-02-04T11:04:43;11.50;99.90
12901;DHT22;6518;50.930;5.344;2024-02-04T11:07:10;11.50;99.90
12901;DHT22;6518;50.930;5.344;2024-02-04T11:09:39;11.40;99.90
12901;DHT22;6518;50.930;5.344;2024-02-04T11:12:15;11.40;99.90
12901;DHT22;6518;50.930;5.344;2024-02-04T11:14:48;11.40;99.90
12901;DHT22;6518;50.930;5.344;2024-02-04T11:20:43;11.40;99.90
12901;DHT22;6518;50.930;5.344;2024-02-04T11:23:33;11.40;99.90
12901;DHT22;6518;50.930;5.344;2024-02-04T11:26:03;11.40;99.90
12901;DHT22;6518;50.930;5.344;2024-02-04T11:28:31;11.50;99.90
12901;DHT22;6518;50.930;5.344;2024-02-04T11:31:00;11.50;99.90
12901;DHT22;6518;50.930;5.344;2024-02-04T11:33:27;11.50;99.90
12901;DHT22;6518;50.930;5.344;2024-02-04T11:36:03;11.50;99.90
12901;DHT22;6518;50.930;5.344;2024-02-04T11:38:31;11.50;99.90
12901;DHT22;6518;50.930;5.344;2024-02-04T11:40:59;11.50;99.90
12901;DHT22;6518;50.930;5.344;2024-02-04T11:43:26;11.50;99.90
12901;DHT22;6518;50.930;5.344;2024-02-04T11:45:53;11.50;99.90
12901;DHT22;6518;50.930;5.344;2024-02-04T11:48:29;11.50;99.90
12901;DHT22;6518;50.930;5.344;2024-02-04T11:50:58;11.60;99.90
12901;DHT22;6518;50.930;5.344;2024-02-04T11:53:25;11.60;99.90
12901;DHT22;6518;50.930;5.344;2024-02-04T11:55:54;11.50;99.90
12901;DHT22;6518;50.930;5.344;2024-02-04T11:58:21;11.60;99.90
12901;DHT22;6518;50.930;5.344;2024-02-04T12:00:51;11.60;99.90
12901;DHT22;6518;50.930;5.344;2024-02-04T12:03:30;11.60;99.90
12901;DHT22;6518;50.930;5.344;2024-02-04T12:05:57;11.60;99.90
12901;DHT22;6518;50.930;5.344;2024-02-04T12:08:25;11.60;99.90
12901;DHT22;6518;50.930;5.344;2024-02-04T12:10:53;11.60;99.90
12901;DHT22;6518;50.930;5.344;2024-02-04T12:13:20;11.60;99.90
12901;DHT22;6518;50.930;5.344;2024-02-04T12:15:47;11.60;99.90
12901;DHT22;6518;50.930;5.344;2024-02-04T12:18:15;11.60;99.90
12901;DHT22;6518;50.930;5.344;2024-02-04T12:20:47;11.60;99.90
12901;DHT22;6518;50.930;5.344;2024-02-04T12:23:15;11.60;99.90
12901;DHT22;6518;50.930;5.344;2024-02-04T12:25:43;11.60;99.90
12901;DHT22;6518;50.930;5.344;2024-02-04T12:28:10;11.50;99.90
12901;DHT22;6518;50.930;5.344;2024-02-04T12:30:37;11.60;99.90
12901;DHT22;6518;50.930;5.344;2024-02-04T12:33:05;11.60;99.90
12901;DHT22;6518;50.930;5.344;2024-02-04T12:35:32;11.60;99.90
12901;DHT22;6518;50.930;5.344;2024-02-04T12:38:01;11.60;99.90
12901;DHT22;6518;50.930;5.344;2024-02-04T12:40:29;11.60;99.90
12901;DHT22;6518;50.930;5.344;2024-02-04T12:42:58;11.60;99.90
12901;DHT22;6518;50.930;5.344;2024-02-04T12:45:25;11.60;99.90
12901;DHT22;6518;50.930;5.344;2024-02-04T12:47:54;11.60;99.90
12901;DHT22;6518;50.930;5.344;2024-02-04T12:50:21;11.60;99.90
12901;DHT22;6518;50.930;5.344;2024-02-04T12:52:50;11.60;99.90
12901;DHT22;6518;50.930;5.344;2024-02-04T12:55:23;11.50;99.90
12901;DHT22;6518;50.930;5.344;2024-02-04T12:58:00;11.50;99.90
12901;DHT22;6518;50.930;5.344;2024-02-04T13:00:28;11.50;99.90
12901;DHT22;6518;50.930;5.344;2024-02-04T13:02:56;11.60;99.90
12901;DHT22;6518;50.930;5.344;2024-02-04T13:05:23;11.60;99.90
12901;DHT22;6518;50.930;5.344;2024-02-04T13:07:53;11.50;99.90
12901;DHT22;6518;50.930;5.344;2024-02-04T13:10:23;11.60;99.90
12901;DHT22;6518;50.930;5.344;2024-02-04T13:13:00;11.60;99.90
12901;DHT22;6518;50.930;5.344;2024-02-04T13:15:27;11.60;99.90
12901;DHT22;6518;50.930;5.344;2024-02-04T13:17:55;11.60;99.90
12901;DHT22;6518;50.930;5.344;2024-02-04T13:20:22;11.60;99.90
12901;DHT22;6518;50.930;5.344;2024-02-04T13:22:49;11.60;99.90
12901;DHT22;6518;50.930;5.344;2024-02-04T13:25:16;11.60;99.90
12901;DHT22;6518;50.930;5.344;2024-02-04T13:27:45;11.60;99.90
12901;DHT22;6518;50.930;5.344;2024-02-04T13:30:12;11.50;99.90
12901;DHT22;6518;50.930;5.344;2024-02-04T13:32:39;11.50;99.90
12901;DHT22;6518;50.930;5.344;2024-02-04T13:35:08;11.50;99.90
12901;DHT22;6518;50.930;5.344;2024-02-04T13:37:36;11.50;99.90
12901;DHT22;6518;50.930;5.344;2024-02-04T13:40:03;11.50;99.90
12901;DHT22;6518;50.930;5.344;2024-02-04T13:42:32;11.50;99.90
12901;DHT22;6518;50.930;5.344;2024-02-04T13:45:02;11.50;99.90
12901;DHT22;6518;50.930;5.344;2024-02-04T13:47:29;11.50;99.90
12901;DHT22;6518;50.930;5.344;2024-02-04T13:49:56;11.50;99.90
12901;DHT22;6518;50.930;5.344;2024-02-04T13:52:23;11.50;99.90
12901;DHT22;6518;50.930;5.344;2024-02-04T13:54:50;11.50;99.90
12901;DHT22;6518;50.930;5.344;2024-02-04T13:57:17;11.50;99.90
12901;DHT22;6518;50.930;5.344;2024-02-04T13:59:43;11.40;99.90
12901;DHT22;6518;50.930;5.344;2024-02-04T14:02:12;11.40;99.90
12901;DHT22;6518;50.930;5.344;2024-02-04T14:04:39;11.40;99.90
12901;DHT22;6518;50.930;5.344;2024-02-04T14:07:06;11.40;99.90
12901;DHT22;6518;50.930;5.344;2024-02-04T14:09:33;11.40;99.90
12901;DHT22;6518;50.930;5.344;2024-02-04T14:12:01;11.40;99.90
12901;DHT22;6518;50.930;5.344;2024-02-04T14:14:29;11.40;99.90
12901;DHT22;6518;50.930;5.344;2024-02-04T14:16:57;11.40;99.90
12901;DHT22;6518;50.930;5.344;2024-02-04T14:19:28;11.50;99.90
12901;DHT22;6518;50.930;5.344;2024-02-04T14:21:55;11.50;99.90
12901;DHT22;6518;50.930;5.344;2024-02-04T14:24:22;11.50;99.90
12901;DHT22;6518;50.930;5.344;2024-02-04T14:26:55;11.50;99.90
12901;DHT22;6518;50.930;5.344;2024-02-04T14:29:22;11.50;99.90
12901;DHT22;6518;50.930;5.344;2024-02-04T14:31:49;11.40;99.90
12901;DHT22;6518;50.930;5.344;2024-02-04T14:34:16;11.40;99.90
12901;DHT22;6518;50.930;5.344;2024-02-04T14:36:44;11.40;99.90
12901;DHT22;6518;50.930;5.344;2024-02-04T14:39:12;11.40;99.90
12901;DHT22;6518;50.930;5.344;2024-02-04T14:41:39;11.40;99.90
12901;DHT22;6518;50.930;5.344;2024-02-04T14:44:06;11.50;99.90
12901;DHT22;6518;50.930;5.344;2024-02-04T14:46:36;11.50;99.90
12901;DHT22;6518;50.930;5.344;2024-02-04T14:49:03;11.50;99.90
12901;DHT22;6518;50.930;5.344;2024-02-04T14:51:31;11.50;99.90
12901;DHT22;6518;50.930;5.344;2024-02-04T14:53:59;11.50;99.90
12901;DHT22;6518;50.930;5.344;2024-02-04T14:56:26;11.50;99.90
12901;DHT22;6518;50.930;5.344;2024-02-04T14:58:53;11.50;99.90
12901;DHT22;6518;50.930;5.344;2024-02-04T15:01:21;11.50;99.90
12901;DHT22;6518;50.930;5.344;2024-02-04T15:03:48;11.50;99.90
12901;DHT22;6518;50.930;5.344;2024-02-04T15:06:14;11.60;99.90
12901;DHT22;6518;50.930;5.344;2024-02-04T15:08:42;11.60;99.90
12901;DHT22;6518;50.930;5.344;2024-02-04T15:11:10;11.50;99.90
12901;DHT22;6518;50.930;5.344;2024-02-04T15:13:38;11.50;99.90
12901;DHT22;6518;50.930;5.344;2024-02-04T15:16:06;11.50;99.90
12901;DHT22;6518;50.930;5.344;2024-02-04T15:18:34;11.50;99.90
12901;DHT22;6518;50.930;5.344;2024-02-04T15:21:02;11.50;99.90
12901;DHT22;6518;50.930;5.344;2024-02-04T15:23:30;11.50;99.90
12901;DHT22;6518;50.930;5.344;2024-02-04T15:25:57;11.50;99.90
12901;DHT22;6518;50.930;5.344;2024-02-04T15:28:26;11.50;99.90
12901;DHT22;6518;50.930;5.344;2024-02-04T15:30:54;11.50;99.90
12901;DHT22;6518;50.930;5.344;2024-02-04T15:33:23;11.50;99.90
12901;DHT22;6518;50.930;5.344;2024-02-04T15:35:50;11.50;99.90
12901;DHT22;6518;50.930;5.344;2024-02-04T15:38:17;11.50;99.90
12901;DHT22;6518;50.930;5.344;2024-02-04T15:40:44;11.50;99.90
12901;DHT22;6518;50.930;5.344;2024-02-04T15:43:11;11.40;99.90
12901;DHT22;6518;50.930;5.344;2024-02-04T15:45:39;11.40;99.90
12901;DHT22;6518;50.930;5.344;2024-02-04T15:48:09;11.40;99.90
12901;DHT22;6518;50.930;5.344;2024-02-04T15:50:38;11.40;99.90
12901;DHT22;6518;50.930;5.344;2024-02-04T15:53:05;11.40;99.90